sensor_id;sensor_type;location;lat;lon;timestamp;P1;durP1;ratioP1;P2;durP2;ratioP2
18072;SDS011;9161;47.348;9.648;2023-08-12T00:04:29;4.22;;;3.10;;
18072;SDS011;9161;47.348;9.648;2023-08-12T00:09:31;7.25;;;3.42;;
18072;SDS011;9161;47.348;9.648;2023-08-12T00:14:34;7.15;;;3.10;;
18072;SDS011;9161;47.348;9.648;2023-08-12T00:19:36;6.85;;;3.10;;
18072;SDS011;9161;47.348;9.648;2023-08-12T00:24:38;8.50;;;4.88;;
18072;SDS011;9161;47.348;9.648;2023-08-12T00:29:42;7.78;;;4.70;;
18072;SDS011;9161;47.348;9.648;2023-08-12T00:34:44;5.10;;;3.42;;
18072;SDS011;9161;47.348;9.648;2023-08-12T00:39:46;3.80;;;2.97;;
18072;SDS011;9161;47.348;9.648;2023-08-12T00:44:49;5.10;;;3.42;;
18072;SDS011;9161;47.348;9.648;2023-08-12T00:49:51;7.53;;;3.60;;
18072;SDS011;9161;47.348;9.648;2023-08-12T00:54:53;7.30;;;3.42;;
18072;SDS011;9161;47.348;9.648;2023-08-12T00:59:57;7.85;;;3.70;;
18072;SDS011;9161;47.348;9.648;2023-08-12T01:05:01;8.18;;;3.33;;
18072;SDS011;9161;47.348;9.648;2023-08-12T01:10:04;6.60;;;3.60;;
18072;SDS011;9161;47.348;9.648;2023-08-12T01:15:09;4.90;;;3.28;;
18072;SDS011;9161;47.348;9.648;2023-08-12T01:20:16;7.15;;;3.50;;
18072;SDS011;9161;47.348;9.648;2023-08-12T01:25:25;8.10;;;3.70;;
18072;SDS011;9161;47.348;9.648;2023-08-12T01:30:28;7.43;;;3.57;;
18072;SDS011;9161;47.348;9.648;2023-08-12T01:35:32;6.07;;;3.20;;
18072;SDS011;9161;47.348;9.648;2023-08-12T01:40:39;5.40;;;3.57;;
18072;SDS011;9161;47.348;9.648;2023-08-12T01:45:42;5.20;;;3.30;;
18072;SDS011;9161;47.348;9.648;2023-08-12T01:50:45;4.70;;;3.30;;
18072;SDS011;9161;47.348;9.648;2023-08-12T01:55:49;7.50;;;3.20;;
18072;SDS011;9161;47.348;9.648;2023-08-12T02:00:53;7.60;;;3.53;;
18072;SDS011;9161;47.348;9.648;2023-08-12T02:05:55;7.90;;;3.40;;
18072;SDS011;9161;47.348;9.648;2023-08-12T02:10:58;7.47;;;3.50;;
18072;SDS011;9161;47.348;9.648;2023-08-12T02:16:00;6.40;;;3.27;;
18072;SDS011;9161;47.348;9.648;2023-08-12T02:21:02;4.70;;;3.33;;
18072;SDS011;9161;47.348;9.648;2023-08-12T02:26:06;4.70;;;3.23;;
18072;SDS011;9161;47.348;9.648;2023-08-12T02:31:08;6.47;;;3.43;;
18072;SDS011;9161;47.348;9.648;2023-08-12T02:36:11;6.10;;;3.30;;
18072;SDS011;9161;47.348;9.648;2023-08-12T02:41:14;4.97;;;3.17;;
18072;SDS011;9161;47.348;9.648;2023-08-12T02:46:16;7.60;;;3.63;;
18072;SDS011;9161;47.348;9.648;2023-08-12T02:51:18;8.47;;;3.50;;
18072;SDS011;9161;47.348;9.648;2023-08-12T02:56:22;7.23;;;3.43;;
18072;SDS011;9161;47.348;9.648;2023-08-12T03:01:24;5.20;;;3.20;;
18072;SDS011;9161;47.348;9.648;2023-08-12T03:06:27;7.27;;;3.33;;
18072;SDS011;9161;47.348;9.648;2023-08-12T03:11:31;3.95;;;2.85;;
18072;SDS011;9161;47.348;9.648;2023-08-12T03:16:33;6.67;;;3.70;;
18072;SDS011;9161;47.348;9.648;2023-08-12T03:21:35;5.82;;;3.40;;
18072;SDS011;9161;47.348;9.648;2023-08-12T03:26:39;5.73;;;3.73;;
18072;SDS011;9161;47.348;9.648;2023-08-12T03:31:41;8.30;;;3.60;;
18072;SDS011;9161;47.348;9.648;2023-08-12T03:36:43;4.77;;;3.10;;
18072;SDS011;9161;47.348;9.648;2023-08-12T03:41:49;4.37;;;3.13;;
18072;SDS011;9161;47.348;9.648;2023-08-12T03:46:53;4.50;;;3.30;;
18072;SDS011;9161;47.348;9.648;2023-08-12T03:51:55;5.70;;;3.10;;
18072;SDS011;9161;47.348;9.648;2023-08-12T03:56:58;4.40;;;3.00;;
18072;SDS011;9161;47.348;9.648;2023-08-12T04:02:00;7.93;;;3.20;;
18072;SDS011;9161;47.348;9.648;2023-08-12T04:07:03;6.03;;;3.47;;
18072;SDS011;9161;47.348;9.648;2023-08-12T04:12:07;8.10;;;4.73;;
18072;SDS011;9161;47.348;9.648;2023-08-12T04:17:09;7.67;;;4.67;;
18072;SDS011;9161;47.348;9.648;2023-08-12T04:22:12;6.25;;;4.60;;
18072;SDS011;9161;47.348;9.648;2023-08-12T04:27:15;6.20;;;4.30;;
18072;SDS011;9161;47.348;9.648;2023-08-12T04:32:19;5.37;;;3.93;;
18072;SDS011;9161;47.348;9.648;2023-08-12T04:37:21;6.28;;;4.40;;
18072;SDS011;9161;47.348;9.648;2023-08-12T04:42:25;9.23;;;4.67;;
18072;SDS011;9161;47.348;9.648;2023-08-12T04:47:27;7.80;;;4.23;;
18072;SDS011;9161;47.348;9.648;2023-08-12T04:52:30;5.60;;;3.60;;
18072;SDS011;9161;47.348;9.648;2023-08-12T04:57:33;5.45;;;3.78;;
18072;SDS011;9161;47.348;9.648;2023-08-12T05:02:35;7.85;;;3.90;;
18072;SDS011;9161;47.348;9.648;2023-08-12T05:07:37;7.45;;;3.70;;
18072;SDS011;9161;47.348;9.648;2023-08-12T05:12:41;7.72;;;4.25;;
18072;SDS011;9161;47.348;9.648;2023-08-12T05:17:43;6.75;;;3.80;;
18072;SDS011;9161;47.348;9.648;2023-08-12T05:22:45;5.50;;;3.63;;
18072;SDS011;9161;47.348;9.648;2023-08-12T05:27:49;10.32;;;4.53;;
18072;SDS011;9161;47.348;9.648;2023-08-12T05:32:51;6.03;;;3.85;;
18072;SDS011;9161;47.348;9.648;2023-08-12T05:37:54;7.20;;;4.07;;
18072;SDS011;9161;47.348;9.648;2023-08-12T05:42:57;10.85;;;4.28;;
18072;SDS011;9161;47.348;9.648;2023-08-12T05:47:59;6.90;;;3.95;;
18072;SDS011;9161;47.348;9.648;2023-08-12T05:53:02;8.05;;;4.32;;
18072;SDS011;9161;47.348;9.648;2023-08-12T05:58:05;11.63;;;3.50;;
18072;SDS011;9161;47.348;9.648;2023-08-12T06:03:08;10.48;;;4.25;;
18072;SDS011;9161;47.348;9.648;2023-08-12T06:08:10;8.20;;;4.32;;
18072;SDS011;9161;47.348;9.648;2023-08-12T06:13:14;11.68;;;5.10;;
18072;SDS011;9161;47.348;9.648;2023-08-12T06:18:16;9.82;;;4.10;;
18072;SDS011;9161;47.348;9.648;2023-08-12T06:23:18;18.17;;;4.18;;
18072;SDS011;9161;47.348;9.648;2023-08-12T06:28:21;10.77;;;3.75;;
18072;SDS011;9161;47.348;9.648;2023-08-12T06:33:23;8.00;;;3.17;;
18072;SDS011;9161;47.348;9.648;2023-08-12T06:38:25;11.07;;;3.60;;
18072;SDS011;9161;47.348;9.648;2023-08-12T06:43:29;5.18;;;3.05;;
18072;SDS011;9161;47.348;9.648;2023-08-12T06:48:31;6.07;;;2.80;;
18072;SDS011;9161;47.348;9.648;2023-08-12T06:53:34;5.55;;;2.78;;
18072;SDS011;9161;47.348;9.648;2023-08-12T06:58:37;5.47;;;3.10;;
18072;SDS011;9161;47.348;9.648;2023-08-12T07:03:39;7.88;;;3.00;;
18072;SDS011;9161;47.348;9.648;2023-08-12T07:08:42;4.80;;;3.03;;
18072;SDS011;9161;47.348;9.648;2023-08-12T07:13:45;8.90;;;2.65;;
18072;SDS011;9161;47.348;9.648;2023-08-12T07:18:47;11.70;;;3.10;;
18072;SDS011;9161;47.348;9.648;2023-08-12T07:23:49;3.47;;;2.30;;
18072;SDS011;9161;47.348;9.648;2023-08-12T07:29:05;5.50;;;3.03;;
18072;SDS011;9161;47.348;9.648;2023-08-12T07:34:07;3.70;;;2.17;;
18072;SDS011;9161;47.348;9.648;2023-08-12T07:39:13;9.50;;;2.90;;
18072;SDS011;9161;47.348;9.648;2023-08-12T07:44:17;4.80;;;2.75;;
18072;SDS011;9161;47.348;9.648;2023-08-12T07:49:19;5.30;;;2.97;;
18072;SDS011;9161;47.348;9.648;2023-08-12T07:54:21;3.72;;;2.47;;
18072;SDS011;9161;47.348;9.648;2023-08-12T07:59:24;5.70;;;2.53;;
18072;SDS011;9161;47.348;9.648;2023-08-12T08:04:27;5.53;;;2.50;;
18072;SDS011;9161;47.348;9.648;2023-08-12T08:09:28;8.40;;;3.08;;
18072;SDS011;9161;47.348;9.648;2023-08-12T08:19:35;8.20;;;3.60;;
18072;SDS011;9161;47.348;9.648;2023-08-12T08:24:37;6.55;;;3.00;;
18072;SDS011;9161;47.348;9.648;2023-08-12T08:29:40;5.47;;;3.00;;
18072;SDS011;9161;47.348;9.648;2023-08-12T08:34:42;4.65;;;2.90;;
18072;SDS011;9161;47.348;9.648;2023-08-12T08:39:44;6.95;;;2.75;;
18072;SDS011;9161;47.348;9.648;2023-08-12T08:44:48;5.32;;;2.42;;
18072;SDS011;9161;47.348;9.648;2023-08-12T08:49:53;6.57;;;2.72;;
18072;SDS011;9161;47.348;9.648;2023-08-12T08:54:57;6.20;;;3.20;;
18072;SDS011;9161;47.348;9.648;2023-08-12T09:00:08;7.43;;;3.17;;
18072;SDS011;9161;47.348;9.648;2023-08-12T09:05:14;5.28;;;2.78;;
18072;SDS011;9161;47.348;9.648;2023-08-12T09:10:17;5.43;;;3.25;;
18072;SDS011;9161;47.348;9.648;2023-08-12T09:15:23;5.75;;;2.75;;
18072;SDS011;9161;47.348;9.648;2023-08-12T09:20:25;6.78;;;3.30;;
18072;SDS011;9161;47.348;9.648;2023-08-12T09:25:28;6.03;;;3.20;;
18072;SDS011;9161;47.348;9.648;2023-08-12T09:30:32;4.53;;;2.63;;
18072;SDS011;9161;47.348;9.648;2023-08-12T09:35:34;6.57;;;2.70;;
18072;SDS011;9161;47.348;9.648;2023-08-12T09:40:37;6.05;;;3.42;;
18072;SDS011;9161;47.348;9.648;2023-08-12T09:45:44;4.50;;;2.83;;
18072;SDS011;9161;47.348;9.648;2023-08-12T09:50:47;4.78;;;2.38;;
18072;SDS011;9161;47.348;9.648;2023-08-12T09:55:51;4.13;;;3.28;;
18072;SDS011;9161;47.348;9.648;2023-08-12T10:00:55;4.03;;;2.78;;
18072;SDS011;9161;47.348;9.648;2023-08-12T10:05:58;5.55;;;3.00;;
18072;SDS011;9161;47.348;9.648;2023-08-12T10:11:02;7.20;;;3.08;;
18072;SDS011;9161;47.348;9.648;2023-08-12T10:16:13;10.80;;;3.40;;
18072;SDS011;9161;47.348;9.648;2023-08-12T10:21:16;4.93;;;3.47;;
18072;SDS011;9161;47.348;9.648;2023-08-12T10:26:19;6.00;;;3.50;;
18072;SDS011;9161;47.348;9.648;2023-08-12T10:31:24;6.13;;;3.72;;
18072;SDS011;9161;47.348;9.648;2023-08-12T10:36:29;6.53;;;3.47;;
18072;SDS011;9161;47.348;9.648;2023-08-12T10:41:39;10.18;;;3.58;;
18072;SDS011;9161;47.348;9.648;2023-08-12T10:46:53;8.60;;;4.55;;
18072;SDS011;9161;47.348;9.648;2023-08-12T10:51:55;6.45;;;4.05;;
18072;SDS011;9161;47.348;9.648;2023-08-12T10:57:03;6.05;;;4.30;;
18072;SDS011;9161;47.348;9.648;2023-08-12T11:02:11;4.78;;;3.85;;
18072;SDS011;9161;47.348;9.648;2023-08-12T11:07:17;6.07;;;3.92;;
18072;SDS011;9161;47.348;9.648;2023-08-12T11:12:28;6.55;;;3.90;;
18072;SDS011;9161;47.348;9.648;2023-08-12T11:17:34;7.18;;;4.00;;
18072;SDS011;9161;47.348;9.648;2023-08-12T11:22:36;7.47;;;4.03;;
18072;SDS011;9161;47.348;9.648;2023-08-12T11:27:40;6.03;;;3.88;;
18072;SDS011;9161;47.348;9.648;2023-08-12T11:32:46;5.82;;;3.70;;
18072;SDS011;9161;47.348;9.648;2023-08-12T11:37:50;13.80;;;3.92;;
18072;SDS011;9161;47.348;9.648;2023-08-12T11:42:53;17.63;;;4.07;;
18072;SDS011;9161;47.348;9.648;2023-08-12T11:47:57;8.15;;;3.95;;
18072;SDS011;9161;47.348;9.648;2023-08-12T11:52:59;8.68;;;4.05;;
18072;SDS011;9161;47.348;9.648;2023-08-12T11:58:02;10.00;;;4.60;;
18072;SDS011;9161;47.348;9.648;2023-08-12T12:03:06;8.48;;;4.10;;
18072;SDS011;9161;47.348;9.648;2023-08-12T12:08:08;9.25;;;4.03;;
18072;SDS011;9161;47.348;9.648;2023-08-12T12:13:10;7.75;;;3.88;;
18072;SDS011;9161;47.348;9.648;2023-08-12T12:18:14;9.27;;;4.10;;
18072;SDS011;9161;47.348;9.648;2023-08-12T12:23:17;9.20;;;3.42;;
18072;SDS011;9161;47.348;9.648;2023-08-12T12:28:19;6.38;;;3.58;;
18072;SDS011;9161;47.348;9.648;2023-08-12T12:33:23;7.25;;;3.33;;
18072;SDS011;9161;47.348;9.648;2023-08-12T12:38:26;3.00;;;2.70;;
18072;SDS011;9161;47.348;9.648;2023-08-12T12:43:28;53.80;;;6.15;;
18072;SDS011;9161;47.348;9.648;2023-08-12T12:48:32;4.95;;;2.78;;
18072;SDS011;9161;47.348;9.648;2023-08-12T12:53:34;33.95;;;3.90;;
18072;SDS011;9161;47.348;9.648;2023-08-12T12:58:36;8.15;;;3.28;;
18072;SDS011;9161;47.348;9.648;2023-08-12T13:03:41;5.60;;;2.80;;
18072;SDS011;9161;47.348;9.648;2023-08-12T13:08:44;19.83;;;3.35;;
18072;SDS011;9161;47.348;9.648;2023-08-12T13:13:46;7.18;;;2.58;;
18072;SDS011;9161;47.348;9.648;2023-08-12T13:18:49;7.40;;;2.60;;
18072;SDS011;9161;47.348;9.648;2023-08-12T13:23:51;8.18;;;3.10;;
18072;SDS011;9161;47.348;9.648;2023-08-12T13:28:53;11.15;;;2.80;;
18072;SDS011;9161;47.348;9.648;2023-08-12T13:33:57;10.48;;;3.17;;
18072;SDS011;9161;47.348;9.648;2023-08-12T13:38:59;7.75;;;2.95;;
18072;SDS011;9161;47.348;9.648;2023-08-12T13:44:01;9.18;;;2.63;;
18072;SDS011;9161;47.348;9.648;2023-08-12T13:49:04;3.95;;;2.38;;
18072;SDS011;9161;47.348;9.648;2023-08-12T13:54:07;5.80;;;2.72;;
18072;SDS011;9161;47.348;9.648;2023-08-12T13:59:08;7.70;;;2.55;;
18072;SDS011;9161;47.348;9.648;2023-08-12T14:04:12;5.70;;;2.45;;
18072;SDS011;9161;47.348;9.648;2023-08-12T14:09:14;5.47;;;2.40;;
18072;SDS011;9161;47.348;9.648;2023-08-12T14:14:18;5.43;;;2.50;;
18072;SDS011;9161;47.348;9.648;2023-08-12T14:19:22;12.90;;;2.70;;
18072;SDS011;9161;47.348;9.648;2023-08-12T14:24:24;6.53;;;2.58;;
18072;SDS011;9161;47.348;9.648;2023-08-12T14:29:26;5.88;;;2.72;;
18072;SDS011;9161;47.348;9.648;2023-08-12T14:34:29;50.80;;;5.07;;
18072;SDS011;9161;47.348;9.648;2023-08-12T14:39:31;3.55;;;2.20;;
18072;SDS011;9161;47.348;9.648;2023-08-12T14:44:33;5.22;;;2.20;;
18072;SDS011;9161;47.348;9.648;2023-08-12T14:49:38;2.88;;;2.53;;
18072;SDS011;9161;47.348;9.648;2023-08-12T14:54:40;5.78;;;2.70;;
18072;SDS011;9161;47.348;9.648;2023-08-12T14:59:42;5.82;;;2.70;;
18072;SDS011;9161;47.348;9.648;2023-08-12T15:04:48;5.93;;;2.35;;
18072;SDS011;9161;47.348;9.648;2023-08-12T15:09:50;6.32;;;2.47;;
18072;SDS011;9161;47.348;9.648;2023-08-12T15:14:55;13.63;;;2.80;;
18072;SDS011;9161;47.348;9.648;2023-08-12T15:19:58;5.97;;;2.30;;
18072;SDS011;9161;47.348;9.648;2023-08-12T15:25:00;2.90;;;2.20;;
18072;SDS011;9161;47.348;9.648;2023-08-12T15:30:02;7.55;;;2.72;;
18072;SDS011;9161;47.348;9.648;2023-08-12T15:35:07;6.90;;;2.90;;
18072;SDS011;9161;47.348;9.648;2023-08-12T15:40:10;3.83;;;2.38;;
18072;SDS011;9161;47.348;9.648;2023-08-12T15:45:13;7.20;;;2.40;;
18072;SDS011;9161;47.348;9.648;2023-08-12T15:50:16;3.20;;;2.42;;
18072;SDS011;9161;47.348;9.648;2023-08-12T15:55:19;5.28;;;2.40;;
18072;SDS011;9161;47.348;9.648;2023-08-12T16:00:21;4.20;;;2.38;;
18072;SDS011;9161;47.348;9.648;2023-08-12T16:05:24;3.15;;;2.55;;
18072;SDS011;9161;47.348;9.648;2023-08-12T16:10:27;4.00;;;1.85;;
18072;SDS011;9161;47.348;9.648;2023-08-12T16:15:29;8.38;;;2.65;;
18072;SDS011;9161;47.348;9.648;2023-08-12T16:20:32;8.13;;;2.60;;
18072;SDS011;9161;47.348;9.648;2023-08-12T16:25:34;8.40;;;2.97;;
18072;SDS011;9161;47.348;9.648;2023-08-12T16:30:37;4.50;;;2.50;;
18072;SDS011;9161;47.348;9.648;2023-08-12T16:35:40;3.50;;;2.78;;
18072;SDS011;9161;47.348;9.648;2023-08-12T16:40:42;17.05;;;3.25;;
18072;SDS011;9161;47.348;9.648;2023-08-12T16:45:44;17.13;;;3.70;;
18072;SDS011;9161;47.348;9.648;2023-08-12T16:50:48;9.55;;;3.05;;
18072;SDS011;9161;47.348;9.648;2023-08-12T16:55:50;8.90;;;3.13;;
18072;SDS011;9161;47.348;9.648;2023-08-12T17:00:52;14.48;;;3.33;;
18072;SDS011;9161;47.348;9.648;2023-08-12T17:05:56;4.00;;;2.88;;
18072;SDS011;9161;47.348;9.648;2023-08-12T17:10:58;6.30;;;3.47;;
18072;SDS011;9161;47.348;9.648;2023-08-12T17:16:00;5.93;;;2.95;;
18072;SDS011;9161;47.348;9.648;2023-08-12T17:21:03;3.25;;;2.47;;
18072;SDS011;9161;47.348;9.648;2023-08-12T17:26:06;8.13;;;3.15;;
18072;SDS011;9161;47.348;9.648;2023-08-12T17:31:08;8.75;;;3.08;;
18072;SDS011;9161;47.348;9.648;2023-08-12T17:36:13;8.60;;;2.95;;
18072;SDS011;9161;47.348;9.648;2023-08-12T17:41:15;7.55;;;2.63;;
18072;SDS011;9161;47.348;9.648;2023-08-12T17:46:17;6.60;;;3.30;;
18072;SDS011;9161;47.348;9.648;2023-08-12T17:51:21;4.97;;;2.80;;
18072;SDS011;9161;47.348;9.648;2023-08-12T17:56:23;4.88;;;2.60;;
18072;SDS011;9161;47.348;9.648;2023-08-12T18:01:24;6.47;;;3.22;;
18072;SDS011;9161;47.348;9.648;2023-08-12T18:06:28;9.75;;;2.50;;
18072;SDS011;9161;47.348;9.648;2023-08-12T18:11:29;8.30;;;2.72;;
18072;SDS011;9161;47.348;9.648;2023-08-12T18:16:31;11.13;;;6.05;;
18072;SDS011;9161;47.348;9.648;2023-08-12T18:21:35;14.52;;;9.20;;
18072;SDS011;9161;47.348;9.648;2023-08-12T18:26:37;13.27;;;8.82;;
18072;SDS011;9161;47.348;9.648;2023-08-12T18:31:39;9.88;;;4.88;;
18072;SDS011;9161;47.348;9.648;2023-08-12T18:36:43;8.20;;;4.15;;
18072;SDS011;9161;47.348;9.648;2023-08-12T18:41:45;8.38;;;3.83;;
18072;SDS011;9161;47.348;9.648;2023-08-12T18:46:48;6.65;;;3.58;;
18072;SDS011;9161;47.348;9.648;2023-08-12T18:51:53;5.05;;;3.40;;
18072;SDS011;9161;47.348;9.648;2023-08-12T18:56:55;7.45;;;3.78;;
18072;SDS011;9161;47.348;9.648;2023-08-12T19:01:58;6.72;;;2.83;;
18072;SDS011;9161;47.348;9.648;2023-08-12T19:07:02;5.47;;;3.35;;
18072;SDS011;9161;47.348;9.648;2023-08-12T19:12:04;5.30;;;2.83;;
18072;SDS011;9161;47.348;9.648;2023-08-12T19:17:07;5.05;;;2.83;;
18072;SDS011;9161;47.348;9.648;2023-08-12T19:22:11;5.97;;;2.60;;
18072;SDS011;9161;47.348;9.648;2023-08-12T19:27:14;5.90;;;3.13;;
18072;SDS011;9161;47.348;9.648;2023-08-12T19:32:16;8.93;;;2.67;;
18072;SDS011;9161;47.348;9.648;2023-08-12T19:37:23;8.02;;;3.00;;
18072;SDS011;9161;47.348;9.648;2023-08-12T19:42:27;5.50;;;2.67;;
18072;SDS011;9161;47.348;9.648;2023-08-12T19:47:34;6.97;;;2.70;;
18072;SDS011;9161;47.348;9.648;2023-08-12T19:52:42;8.35;;;3.80;;
18072;SDS011;9161;47.348;9.648;2023-08-12T19:57:47;6.05;;;3.03;;
18072;SDS011;9161;47.348;9.648;2023-08-12T20:02:51;4.35;;;2.80;;
18072;SDS011;9161;47.348;9.648;2023-08-12T20:07:58;4.47;;;2.80;;
18072;SDS011;9161;47.348;9.648;2023-08-12T20:13:03;4.65;;;2.83;;
18072;SDS011;9161;47.348;9.648;2023-08-12T20:18:07;4.45;;;2.83;;
18072;SDS011;9161;47.348;9.648;2023-08-12T20:23:13;4.05;;;2.53;;
18072;SDS011;9161;47.348;9.648;2023-08-12T20:28:17;7.47;;;2.53;;
18072;SDS011;9161;47.348;9.648;2023-08-12T20:33:22;5.43;;;3.00;;
18072;SDS011;9161;47.348;9.648;2023-08-12T20:38:28;5.93;;;2.55;;
18072;SDS011;9161;47.348;9.648;2023-08-12T20:43:34;3.95;;;2.42;;
18072;SDS011;9161;47.348;9.648;2023-08-12T20:48:40;5.28;;;3.13;;
18072;SDS011;9161;47.348;9.648;2023-08-12T20:53:46;4.75;;;2.67;;
18072;SDS011;9161;47.348;9.648;2023-08-12T20:58:50;7.63;;;3.42;;
18072;SDS011;9161;47.348;9.648;2023-08-12T21:03:54;4.60;;;3.05;;
18072;SDS011;9161;47.348;9.648;2023-08-12T21:08:58;6.68;;;3.13;;
18072;SDS011;9161;47.348;9.648;2023-08-12T21:14:01;5.88;;;3.10;;
18072;SDS011;9161;47.348;9.648;2023-08-12T21:19:05;6.50;;;3.80;;
18072;SDS011;9161;47.348;9.648;2023-08-12T21:24:10;7.32;;;2.92;;
18072;SDS011;9161;47.348;9.648;2023-08-12T21:29:16;5.22;;;2.95;;
18072;SDS011;9161;47.348;9.648;2023-08-12T21:34:22;8.23;;;3.47;;
18072;SDS011;9161;47.348;9.648;2023-08-12T21:39:31;6.53;;;3.08;;
18072;SDS011;9161;47.348;9.648;2023-08-12T22:06:39;6.95;;;2.88;;
18072;SDS011;9161;47.348;9.648;2023-08-12T22:11:41;7.57;;;2.95;;
18072;SDS011;9161;47.348;9.648;2023-08-12T22:16:43;7.35;;;3.40;;
18072;SDS011;9161;47.348;9.648;2023-08-12T22:21:46;5.47;;;3.03;;
18072;SDS011;9161;47.348;9.648;2023-08-12T22:26:49;5.78;;;3.50;;
18072;SDS011;9161;47.348;9.648;2023-08-12T22:31:50;5.88;;;3.53;;
18072;SDS011;9161;47.348;9.648;2023-08-12T22:36:54;6.78;;;3.03;;
18072;SDS011;9161;47.348;9.648;2023-08-12T22:41:56;7.00;;;3.53;;
18072;SDS011;9161;47.348;9.648;2023-08-12T22:46:59;4.78;;;2.95;;
18072;SDS011;9161;47.348;9.648;2023-08-12T22:52:03;8.70;;;3.58;;
18072;SDS011;9161;47.348;9.648;2023-08-12T22:57:05;8.55;;;3.53;;
18072;SDS011;9161;47.348;9.648;2023-08-12T23:02:07;7.50;;;4.20;;
18072;SDS011;9161;47.348;9.648;2023-08-12T23:07:12;5.32;;;3.50;;
18072;SDS011;9161;47.348;9.648;2023-08-12T23:12:18;8.88;;;3.65;;
18072;SDS011;9161;47.348;9.648;2023-08-12T23:17:20;6.70;;;3.67;;
18072;SDS011;9161;47.348;9.648;2023-08-12T23:22:24;7.07;;;3.65;;
18072;SDS011;9161;47.348;9.648;2023-08-12T23:27:26;7.95;;;3.20;;
18072;SDS011;9161;47.348;9.648;2023-08-12T23:32:28;5.88;;;3.22;;
18072;SDS011;9161;47.348;9.648;2023-08-12T23:37:32;6.53;;;2.90;;
18072;SDS011;9161;47.348;9.648;2023-08-12T23:42:34;5.75;;;3.13;;
18072;SDS011;9161;47.348;9.648;2023-08-12T23:47:37;9.88;;;3.33;;
18072;SDS011;9161;47.348;9.648;2023-08-12T23:52:42;5.53;;;3.25;;
18072;SDS011;9161;47.348;9.648;2023-08-12T23:57:44;5.15;;;3.17;;
